Decoded Metar for FBSK (GABERONE in BOTSWANA) (IATA:GBE) | Meteo·Mobile Aviation Weather
aviador You're here:

FBSK Decoded Metar

GABERONE in BOTSWANA
Report Time2018-10-20 07:00:00
UTC Time2018-10-20 07:22:57
Flight Rules vfr VFR
Wind080° at 07 kt
W.Decomp.*RWY 08: 6.8 kt HW 1.8 kt RCW
W.Rank080° ranks 6
Current wind is above 080° avg. (6.9)
Visibility9999 m
Phenomena:N/A
Clouds:N/A
Expected CloudBase > 6,000 ft AGL from Temp-Dew spread
CeilingNone
Temp25°C (ISA +17)
Dew Point10°C (39% RH)
AAT22.5°C
QNH1020 hPa
Density Alt5,135 ft
Elevation3,297 ft
Report Wrong Elevation
Raw Report
METAR FBSK 200700Z 08007KT CAVOK 25/10 Q1020 NOSIG=

Extra information for FBSK:More info

Metar Taf Metar & Taf Last 4 Metars F.Rules Stats Wind Profile Meteogram Temp Stats Airport Information Weather charts Add Link Nearby VenuesMetar ALERT Operation Metar Decoded Social comments